Time;durP1;ratioP1;P1;durP2;ratioP2;P2;SDS_P1;SDS_P2;PMS_P1;PMS_P2;Temp;Humidity;BMP_temperature;BMP_pressure;BME280_temperature;BME280_humidity;BME280_pressure;Samples;Min_cycle;Max_cycle;Signal;HPM_P1;HPM_P2
2022/07/31 00:01:40;;;;;;;;;;;26.60;37.80;;;;;;1556533;75;1945;-67
2022/07/31 00:03:41;;;;;;;;;;;26.60;37.80;;;;;;1559887;75;788;-66
2022/07/31 00:05:43;;;;;;;;;;;26.60;37.90;;;;;;1550419;75;718;-66
2022/07/31 00:07:45;;;;;;;;;;;26.50;37.90;;;;;;1555369;75;723;-67
2022/07/31 00:09:47;;;;;;;;;;;26.50;37.90;;;;;;1551135;75;624;-67
2022/07/31 00:11:49;;;;;;;;;;;26.50;37.80;;;;;;1546753;75;1153;-68
2022/07/31 00:13:51;;;;;;;;;;;26.60;37.90;;;;;;1545312;75;692;-66
2022/07/31 00:15:53;;;;;;;;;;;26.50;37.90;;;;;;1545834;75;730;-67
2022/07/31 00:17:55;;;;;;;;;;;26.50;38.00;;;;;;1552617;75;678;-66
2022/07/31 00:19:57;;;;;;;;;;;26.50;37.90;;;;;;1553734;75;669;-66
2022/07/31 00:21:59;;;;;;;;;;;26.50;37.90;;;;;;1555990;75;1942;-67
2022/07/31 00:24:01;;;;;;;;;;;26.50;37.90;;;;;;1553939;75;689;-66
2022/07/31 00:26:02;;;;;;;;;;;26.60;38.00;;;;;;1554870;75;742;-67
2022/07/31 00:28:04;;;;;;;;;;;26.60;37.90;;;;;;1553718;75;699;-67
2022/07/31 00:30:06;;;;;;;;;;;26.50;37.90;;;;;;1545774;76;1099;-66
2022/07/31 00:32:10;;;;;;;;;;;26.50;38.00;;;;;;1559358;75;1165;-67
2022/07/31 00:34:12;;;;;;;;;;;26.50;37.90;;;;;;1548037;75;723;-66
2022/07/31 00:36:13;;;;;;;;;;;26.50;38.00;;;;;;1558513;75;682;-66
2022/07/31 00:38:15;;;;;;;;;;;26.60;38.00;;;;;;1565929;75;735;-67
2022/07/31 00:40:17;;;;;;;;;;;26.60;38.00;;;;;;1554975;75;1131;-68
2022/07/31 00:42:20;;;;;;;;;;;26.50;38.00;;;;;;1561746;75;1947;-66
2022/07/31 00:44:21;;;;;;;;;;;26.50;38.00;;;;;;1551042;75;821;-68
2022/07/31 00:46:23;;;;;;;;;;;26.60;38.00;;;;;;1547926;76;1038;-67
2022/07/31 00:48:25;;;;;;;;;;;26.50;38.00;;;;;;1567439;75;700;-66
2022/07/31 00:50:27;;;;;;;;;;;26.50;38.00;;;;;;1549868;75;1163;-67
2022/07/31 00:52:29;;;;;;;;;;;26.50;38.00;;;;;;1547573;75;1610;-67
2022/07/31 00:54:31;;;;;;;;;;;26.50;38.00;;;;;;1551575;75;693;-66
2022/07/31 00:56:33;;;;;;;;;;;26.50;38.00;;;;;;1554874;75;699;-66
2022/07/31 00:58:35;;;;;;;;;;;26.50;38.00;;;;;;1555248;75;684;-67
2022/07/31 01:00:56;;;;;;;;;;;26.50;38.10;;;;;;1559352;75;1165;-67
2022/07/31 01:02:58;;;;;;;;;;;26.60;38.10;;;;;;1552881;75;680;-63
2022/07/31 01:05:00;;;;;;;;;;;26.60;38.10;;;;;;1547506;75;825;-66
2022/07/31 01:07:02;;;;;;;;;;;26.50;38.10;;;;;;1554085;75;657;-64
2022/07/31 01:09:03;;;;;;;;;;;26.50;38.10;;;;;;1550605;75;756;-65
2022/07/31 01:11:10;;;;;;;;;;;26.50;38.10;;;;;;1541993;75;1210;-64
2022/07/31 01:13:16;;;;;;;;;;;26.60;38.10;;;;;;1536031;75;741;-66
2022/07/31 01:15:18;;;;;;;;;;;26.60;38.10;;;;;;1548445;75;1760;-63
2022/07/31 01:17:22;;;;;;;;;;;26.60;38.10;;;;;;1543770;75;700;-64
2022/07/31 01:19:25;;;;;;;;;;;26.50;38.10;;;;;;1554083;75;792;-65
2022/07/31 01:21:27;;;;;;;;;;;26.60;38.10;;;;;;1549661;74;1944;-64
2022/07/31 01:23:37;;;;;;;;;;;26.60;38.10;;;;;;1547474;76;650;-63
2022/07/31 01:25:56;;;;;;;;;;;26.50;38.10;;;;;;1559561;74;1100;-63
2022/07/31 01:28:17;;;;;;;;;;;26.60;38.10;;;;;;1532025;76;740;-62
2022/07/31 01:30:19;;;;;;;;;;;26.60;38.10;;;;;;1538467;76;684;-64
2022/07/31 01:32:23;;;;;;;;;;;26.50;38.10;;;;;;1533859;76;1125;-63
2022/07/31 01:34:27;;;;;;;;;;;26.50;38.10;;;;;;1524193;78;787;-65
2022/07/31 01:36:33;;;;;;;;;;;26.50;38.20;;;;;;1568524;75;676;-64
2022/07/31 01:38:34;;;;;;;;;;;26.50;38.10;;;;;;1556528;75;1897;-63
2022/07/31 01:40:41;;;;;;;;;;;26.50;38.20;;;;;;1534006;77;669;-63
2022/07/31 01:42:44;;;;;;;;;;;26.40;38.20;;;;;;1545686;75;1921;-64
2022/07/31 01:44:47;;;;;;;;;;;26.50;38.20;;;;;;1549954;75;744;-64
2022/07/31 01:46:49;;;;;;;;;;;26.40;38.20;;;;;;1556293;76;817;-63
2022/07/31 01:48:51;;;;;;;;;;;26.40;38.20;;;;;;1553752;75;1581;-64
2022/07/31 01:50:53;;;;;;;;;;;26.40;38.20;;;;;;1555344;75;1155;-65
2022/07/31 01:52:55;;;;;;;;;;;26.40;38.20;;;;;;1557040;75;677;-65
2022/07/31 01:54:57;;;;;;;;;;;26.50;38.20;;;;;;1554342;75;742;-63
2022/07/31 01:56:59;;;;;;;;;;;26.50;38.30;;;;;;1545296;75;751;-63
2022/07/31 01:59:01;;;;;;;;;;;26.40;38.20;;;;;;1547548;74;688;-63
2022/07/31 02:01:03;;;;;;;;;;;26.50;38.30;;;;;;1564532;74;1126;-63
2022/07/31 02:03:05;;;;;;;;;;;26.40;38.30;;;;;;1559646;74;1928;-63
2022/07/31 02:05:07;;;;;;;;;;;26.40;38.30;;;;;;1531652;76;671;-64
2022/07/31 02:07:09;;;;;;;;;;;26.50;38.20;;;;;;1563737;74;621;-64
2022/07/31 02:09:11;;;;;;;;;;;26.40;38.30;;;;;;1563293;74;885;-64
2022/07/31 02:11:15;;;;;;;;;;;26.50;38.30;;;;;;1561845;75;1141;-64
2022/07/31 02:13:17;;;;;;;;;;;26.50;38.30;;;;;;1566326;75;1788;-64
2022/07/31 02:15:19;;;;;;;;;;;26.50;38.30;;;;;;1552897;76;692;-65
2022/07/31 02:17:20;;;;;;;;;;;26.40;38.30;;;;;;1560498;75;736;-63
2022/07/31 02:19:22;;;;;;;;;;;26.40;38.30;;;;;;1564504;74;741;-63
2022/07/31 02:21:25;;;;;;;;;;;26.50;38.30;;;;;;1542262;75;1960;-63
2022/07/31 02:23:27;;;;;;;;;;;26.50;38.40;;;;;;1548683;75;660;-64
2022/07/31 02:25:29;;;;;;;;;;;26.50;38.30;;;;;;1544351;75;759;-65
2022/07/31 02:27:30;;;;;;;;;;;26.50;38.30;;;;;;1554894;75;780;-64
2022/07/31 02:29:32;;;;;;;;;;;26.50;38.40;;;;;;1538949;76;644;-64
2022/07/31 02:31:34;;;;;;;;;;;26.50;38.30;;;;;;1524727;76;1143;-64
2022/07/31 02:33:36;;;;;;;;;;;26.50;38.40;;;;;;1518747;76;718;-65
2022/07/31 02:35:38;;;;;;;;;;;26.40;38.40;;;;;;1551926;75;684;-64
2022/07/31 02:37:40;;;;;;;;;;;26.50;38.40;;;;;;1553387;75;683;-65
2022/07/31 02:39:42;;;;;;;;;;;26.40;38.40;;;;;;1546948;76;742;-63
2022/07/31 02:41:43;;;;;;;;;;;26.50;38.40;;;;;;1544272;76;1956;-63
2022/07/31 02:43:45;;;;;;;;;;;26.50;38.40;;;;;;1545267;76;682;-64
2022/07/31 02:45:47;;;;;;;;;;;26.50;38.30;;;;;;1559080;74;1539;-64
2022/07/31 02:47:49;;;;;;;;;;;26.40;38.40;;;;;;1556837;76;704;-65
2022/07/31 02:49:51;;;;;;;;;;;26.50;38.40;;;;;;1546031;76;757;-63
2022/07/31 02:51:54;;;;;;;;;;;26.50;38.40;;;;;;1558836;75;1141;-64
2022/07/31 02:53:56;;;;;;;;;;;26.40;38.40;;;;;;1553650;76;830;-64
2022/07/31 02:55:58;;;;;;;;;;;26.50;38.40;;;;;;1550744;74;738;-65
2022/07/31 02:58:01;;;;;;;;;;;26.40;38.40;;;;;;1547130;75;806;-63
2022/07/31 03:00:22;;;;;;;;;;;26.40;38.40;;;;;;1527546;76;641;-64
2022/07/31 03:02:24;;;;;;;;;;;26.40;38.40;;;;;;1530284;76;1928;-64
2022/07/31 03:04:26;;;;;;;;;;;26.50;38.40;;;;;;1520104;76;669;-63
2022/07/31 03:06:27;;;;;;;;;;;26.50;38.40;;;;;;1518113;76;715;-64
2022/07/31 03:08:29;;;;;;;;;;;26.50;38.40;;;;;;1552512;75;745;-64
2022/07/31 03:10:31;;;;;;;;;;;26.40;38.40;;;;;;1568451;74;720;-64
2022/07/31 03:12:33;;;;;;;;;;;26.50;38.40;;;;;;1548097;75;1070;-66
2022/07/31 03:14:35;;;;;;;;;;;26.40;38.40;;;;;;1546121;75;798;-65
2022/07/31 03:16:37;;;;;;;;;;;26.50;38.50;;;;;;1561865;75;729;-64
2022/07/31 03:18:39;;;;;;;;;;;26.50;38.40;;;;;;1552905;75;667;-64
2022/07/31 03:20:42;;;;;;;;;;;26.40;38.40;;;;;;1555876;74;1156;-64
2022/07/31 03:22:44;;;;;;;;;;;26.50;38.40;;;;;;1527047;77;1929;-64
2022/07/31 03:24:46;;;;;;;;;;;26.40;38.40;;;;;;1561441;75;771;-65
2022/07/31 03:26:48;;;;;;;;;;;26.40;38.40;;;;;;1558831;75;765;-64
2022/07/31 03:28:50;;;;;;;;;;;26.40;38.40;;;;;;1551682;75;685;-64
2022/07/31 03:30:52;;;;;;;;;;;26.40;38.40;;;;;;1550235;75;1191;-64
2022/07/31 03:32:54;;;;;;;;;;;26.50;38.50;;;;;;1548767;75;707;-63
2022/07/31 03:34:56;;;;;;;;;;;26.40;38.50;;;;;;1555427;75;694;-63
2022/07/31 03:36:58;;;;;;;;;;;26.40;38.50;;;;;;1553039;75;694;-65
2022/07/31 03:38:59;;;;;;;;;;;26.40;38.50;;;;;;1556894;75;802;-64
2022/07/31 03:41:01;;;;;;;;;;;26.50;38.50;;;;;;1555601;75;1156;-65
2022/07/31 03:43:03;;;;;;;;;;;26.40;38.40;;;;;;1555951;75;1950;-65
2022/07/31 03:45:05;;;;;;;;;;;26.40;38.50;;;;;;1550586;75;694;-64
2022/07/31 03:47:07;;;;;;;;;;;26.40;38.60;;;;;;1543650;76;643;-64
2022/07/31 03:49:09;;;;;;;;;;;26.50;38.60;;;;;;1550030;76;751;-64
2022/07/31 03:51:12;;;;;;;;;;;26.50;38.60;;;;;;1551425;76;1121;-64
2022/07/31 03:53:13;;;;;;;;;;;26.50;38.60;;;;;;1559210;74;755;-64
2022/07/31 03:55:15;;;;;;;;;;;26.50;38.60;;;;;;1549158;75;776;-63
2022/07/31 03:57:17;;;;;;;;;;;26.50;38.60;;;;;;1533209;77;795;-63
2022/07/31 03:59:19;;;;;;;;;;;26.50;38.60;;;;;;1542003;77;672;-63
2022/07/31 04:01:21;;;;;;;;;;;26.40;38.60;;;;;;1541268;76;1117;-64
2022/07/31 04:03:23;;;;;;;;;;;26.40;38.60;;;;;;1540222;77;1941;-65
2022/07/31 04:05:25;;;;;;;;;;;26.40;38.60;;;;;;1538774;77;713;-64
2022/07/31 04:07:27;;;;;;;;;;;26.40;38.60;;;;;;1540536;77;763;-63
2022/07/31 04:09:29;;;;;;;;;;;26.40;38.60;;;;;;1540017;76;664;-63
2022/07/31 04:11:30;;;;;;;;;;;26.50;38.60;;;;;;1533665;77;1176;-63
2022/07/31 04:13:35;;;;;;;;;;;26.50;38.60;;;;;;1545607;77;727;-64
2022/07/31 04:15:37;;;;;;;;;;;26.50;38.60;;;;;;1532541;77;658;-64
2022/07/31 04:17:38;;;;;;;;;;;26.40;38.60;;;;;;1543067;77;684;-64
2022/07/31 04:19:41;;;;;;;;;;;26.40;38.60;;;;;;1539467;75;693;-65
2022/07/31 04:21:42;;;;;;;;;;;26.40;38.60;;;;;;1539871;75;1158;-64
2022/07/31 04:23:44;;;;;;;;;;;26.40;38.60;;;;;;1532840;77;1944;-64
2022/07/31 04:25:46;;;;;;;;;;;26.50;38.60;;;;;;1528177;77;731;-63
2022/07/31 04:27:48;;;;;;;;;;;26.50;38.60;;;;;;1531300;77;711;-64
2022/07/31 04:29:50;;;;;;;;;;;26.40;38.60;;;;;;1537280;77;751;-64
2022/07/31 04:31:52;;;;;;;;;;;26.40;38.60;;;;;;1547994;75;1184;-64
2022/07/31 04:33:54;;;;;;;;;;;26.40;38.60;;;;;;1543358;76;804;-66
2022/07/31 04:35:56;;;;;;;;;;;26.40;38.60;;;;;;1545799;77;750;-65
2022/07/31 04:37:57;;;;;;;;;;;26.40;38.60;;;;;;1551985;75;1579;-64
2022/07/31 04:39:59;;;;;;;;;;;26.40;38.60;;;;;;1542772;76;680;-63
2022/07/31 04:42:01;;;;;;;;;;;26.40;38.60;;;;;;1532649;75;1160;-64
2022/07/31 04:44:03;;;;;;;;;;;26.40;38.60;;;;;;1534332;77;1931;-64
2022/07/31 04:46:05;;;;;;;;;;;26.50;38.60;;;;;;1536785;77;660;-64
2022/07/31 04:48:07;;;;;;;;;;;26.40;38.60;;;;;;1533641;77;748;-64
2022/07/31 04:50:09;;;;;;;;;;;26.50;38.60;;;;;;1537785;77;626;-65
2022/07/31 04:52:11;;;;;;;;;;;26.40;38.60;;;;;;1529351;75;1148;-64
2022/07/31 04:54:13;;;;;;;;;;;26.40;38.60;;;;;;1540939;77;710;-64
2022/07/31 04:56:33;;;;;;;;;;;26.40;38.60;;;;;;1529402;77;735;-63
2022/07/31 04:58:34;;;;;;;;;;;26.40;38.60;;;;;;1535579;77;714;-64
2022/07/31 05:00:36;;;;;;;;;;;26.50;38.60;;;;;;1534958;77;722;-65
2022/07/31 05:02:39;;;;;;;;;;;26.40;38.70;;;;;;1529017;77;1962;-65
2022/07/31 05:04:41;;;;;;;;;;;26.40;38.60;;;;;;1531318;77;664;-64
2022/07/31 05:06:45;;;;;;;;;;;26.50;38.60;;;;;;1546231;77;714;-63
2022/07/31 05:08:47;;;;;;;;;;;26.50;38.60;;;;;;1535829;77;1619;-64
2022/07/31 05:13:08;;;;;;;;;;;26.50;38.60;;;;;;1541196;77;1644;-64
2022/07/31 05:15:10;;;;;;;;;;;26.50;38.70;;;;;;1535829;77;688;-64
2022/07/31 05:17:12;;;;;;;;;;;26.50;38.70;;;;;;1531390;77;684;-64
2022/07/31 05:19:14;;;;;;;;;;;26.50;38.60;;;;;;1542947;75;646;-64
2022/07/31 05:21:16;;;;;;;;;;;26.50;38.70;;;;;;1533961;76;1162;-63
2022/07/31 05:23:18;;;;;;;;;;;26.50;38.70;;;;;;1535561;77;1939;-63
2022/07/31 05:25:20;;;;;;;;;;;26.50;38.70;;;;;;1540233;77;719;-64
2022/07/31 05:27:21;;;;;;;;;;;26.60;38.70;;;;;;1540619;77;851;-66
2022/07/31 05:29:23;;;;;;;;;;;26.60;38.70;;;;;;1540902;77;759;-64
2022/07/31 05:31:26;;;;;;;;;;;26.70;38.70;;;;;;1540652;77;1190;-64
2022/07/31 05:33:28;;;;;;;;;;;26.60;38.60;;;;;;1536163;77;673;-64
2022/07/31 05:35:30;;;;;;;;;;;26.60;38.50;;;;;;1542153;75;1720;-64
2022/07/31 05:37:32;;;;;;;;;;;26.60;38.40;;;;;;1544894;75;660;-63
2022/07/31 05:39:34;;;;;;;;;;;26.60;38.40;;;;;;1531140;76;655;-64
2022/07/31 05:41:37;;;;;;;;;;;26.60;38.40;;;;;;1540576;77;1155;-66
2022/07/31 05:43:39;;;;;;;;;;;26.60;38.40;;;;;;1540713;77;1966;-66
2022/07/31 05:45:41;;;;;;;;;;;26.70;38.40;;;;;;1549746;77;700;-63
2022/07/31 05:47:42;;;;;;;;;;;26.60;38.30;;;;;;1536230;77;692;-64
2022/07/31 05:49:45;;;;;;;;;;;26.60;38.30;;;;;;1531861;77;769;-61
2022/07/31 05:51:52;;;;;;;;;;;26.60;38.30;;;;;;1535673;77;1133;-63
2022/07/31 05:53:50;;;;;;;;;;;26.60;38.30;;;;;;1538083;77;1447;-64
2022/07/31 05:55:52;;;;;;;;;;;26.60;38.20;;;;;;1540460;77;685;-64
2022/07/31 05:57:54;;;;;;;;;;;26.60;38.20;;;;;;1536299;77;672;-66
2022/07/31 05:59:56;;;;;;;;;;;26.60;38.20;;;;;;1528302;77;803;-64
2022/07/31 06:01:58;;;;;;;;;;;26.60;38.20;;;;;;1531881;75;1190;-63
2022/07/31 06:04:01;;;;;;;;;;;26.60;38.20;;;;;;1534452;77;1920;-63
2022/07/31 06:06:03;;;;;;;;;;;26.60;38.30;;;;;;1540882;77;757;-64
2022/07/31 06:08:05;;;;;;;;;;;26.60;38.30;;;;;;1540199;77;799;-66
2022/07/31 06:10:07;;;;;;;;;;;26.60;38.30;;;;;;1538011;75;755;-63
2022/07/31 06:12:09;;;;;;;;;;;26.60;38.20;;;;;;1531225;75;1168;-64
2022/07/31 06:14:11;;;;;;;;;;;26.50;38.30;;;;;;1541064;77;696;-66
2022/07/31 06:16:13;;;;;;;;;;;26.60;38.30;;;;;;1531970;77;749;-64
2022/07/31 06:18:15;;;;;;;;;;;26.60;38.30;;;;;;1533870;75;702;-64
2022/07/31 06:20:16;;;;;;;;;;;26.60;38.30;;;;;;1530159;77;630;-64
2022/07/31 06:22:18;;;;;;;;;;;26.50;38.30;;;;;;1536410;77;1136;-63
2022/07/31 06:24:20;;;;;;;;;;;26.50;38.40;;;;;;1538046;77;1929;-64
2022/07/31 06:26:22;;;;;;;;;;;26.60;38.40;;;;;;1533790;77;801;-67
2022/07/31 06:28:24;;;;;;;;;;;26.50;38.40;;;;;;1529620;77;791;-63
2022/07/31 06:30:26;;;;;;;;;;;26.60;38.40;;;;;;1543591;75;1544;-63
2022/07/31 06:32:28;;;;;;;;;;;26.50;38.30;;;;;;1548399;75;1157;-64
2022/07/31 06:34:30;;;;;;;;;;;26.50;38.40;;;;;;1533729;76;682;-64
2022/07/31 06:36:32;;;;;;;;;;;26.60;38.40;;;;;;1549371;77;762;-63
2022/07/31 06:38:34;;;;;;;;;;;26.50;38.40;;;;;;1538691;75;649;-64
2022/07/31 06:40:36;;;;;;;;;;;26.50;38.40;;;;;;1535390;77;696;-64
2022/07/31 06:42:37;;;;;;;;;;;26.50;38.40;;;;;;1547679;77;1142;-65
2022/07/31 06:44:39;;;;;;;;;;;26.60;38.40;;;;;;1528671;76;1930;-64
2022/07/31 06:46:41;;;;;;;;;;;26.60;38.40;;;;;;1537573;77;713;-67
2022/07/31 06:48:43;;;;;;;;;;;26.50;38.40;;;;;;1538707;76;805;-64
2022/07/31 06:50:46;;;;;;;;;;;26.50;38.40;;;;;;1543397;75;1119;-63
2022/07/31 06:52:48;;;;;;;;;;;26.50;38.40;;;;;;1536572;77;728;-64
2022/07/31 06:54:50;;;;;;;;;;;26.60;38.40;;;;;;1538982;77;701;-64
2022/07/31 06:56:52;;;;;;;;;;;26.50;38.40;;;;;;1529895;77;738;-64
2022/07/31 06:58:54;;;;;;;;;;;26.60;38.40;;;;;;1536113;75;858;-63
2022/07/31 07:03:25;;;;;;;;;;;26.50;38.50;;;;;;1568810;74;1924;-67
2022/07/31 07:05:27;;;;;;;;;;;26.60;38.40;;;;;;1570078;74;675;-66
2022/07/31 07:07:29;;;;;;;;;;;26.60;38.40;;;;;;1585875;73;676;-66
2022/07/31 07:09:31;;;;;;;;;;;26.60;38.40;;;;;;1583161;73;666;-66
2022/07/31 07:11:32;;;;;;;;;;;26.50;38.40;;;;;;1577403;74;1204;-66
2022/07/31 07:13:34;;;;;;;;;;;26.50;38.50;;;;;;1550769;75;587;-63
2022/07/31 07:15:36;;;;;;;;;;;26.50;38.50;;;;;;1547939;75;671;-67
2022/07/31 07:17:38;;;;;;;;;;;26.50;38.40;;;;;;1559140;75;672;-68
2022/07/31 07:19:40;;;;;;;;;;;26.50;38.50;;;;;;1554234;75;655;-66
2022/07/31 07:21:42;;;;;;;;;;;26.50;38.50;;;;;;1567246;75;1181;-67
2022/07/31 07:23:44;;;;;;;;;;;26.60;38.50;;;;;;1542922;75;1932;-67
2022/07/31 07:25:46;;;;;;;;;;;26.60;38.40;;;;;;1551386;75;658;-66
2022/07/31 07:27:48;;;;;;;;;;;26.60;38.50;;;;;;1558923;75;1529;-67
2022/07/31 07:29:50;;;;;;;;;;;26.50;38.40;;;;;;1544418;75;667;-67
2022/07/31 07:31:51;;;;;;;;;;;26.60;38.50;;;;;;1550409;75;1137;-67
2022/07/31 07:33:54;;;;;;;;;;;26.50;38.40;;;;;;1555648;75;708;-67
2022/07/31 07:35:56;;;;;;;;;;;26.50;38.50;;;;;;1537193;75;723;-66
2022/07/31 07:37:58;;;;;;;;;;;26.60;38.50;;;;;;1554620;75;670;-67
2022/07/31 07:40:00;;;;;;;;;;;26.50;38.50;;;;;;1549578;75;713;-67
2022/07/31 07:42:02;;;;;;;;;;;26.60;38.50;;;;;;1544481;75;1154;-66
2022/07/31 07:44:06;;;;;;;;;;;26.60;38.40;;;;;;1548339;75;1910;-68
2022/07/31 07:46:07;;;;;;;;;;;26.60;38.40;;;;;;1548312;75;622;-67
2022/07/31 07:48:09;;;;;;;;;;;26.70;38.40;;;;;;1554813;75;643;-67
2022/07/31 07:50:11;;;;;;;;;;;26.60;38.40;;;;;;1552345;75;666;-66
2022/07/31 07:52:13;;;;;;;;;;;26.70;38.40;;;;;;1554265;75;1148;-67
2022/07/31 07:54:15;;;;;;;;;;;26.70;38.50;;;;;;1541365;75;827;-67
2022/07/31 07:56:17;;;;;;;;;;;26.80;38.40;;;;;;1544718;75;665;-67
2022/07/31 07:58:19;;;;;;;;;;;26.90;38.40;;;;;;1550984;75;700;-66
2022/07/31 08:00:21;;;;;;;;;;;27.00;38.90;;;;;;1544770;75;654;-66
2022/07/31 08:02:22;;;;;;;;;;;27.10;38.60;;;;;;1544950;75;1141;-67
2022/07/31 08:04:24;;;;;;;;;;;27.10;38.40;;;;;;1544505;75;1952;-67
2022/07/31 08:06:26;;;;;;;;;;;27.30;38.20;;;;;;1552949;75;524;-67
2022/07/31 08:08:28;;;;;;;;;;;27.40;38.00;;;;;;1546188;75;703;-67
2022/07/31 08:10:30;;;;;;;;;;;27.40;37.80;;;;;;1545699;75;696;-67
2022/07/31 08:12:32;;;;;;;;;;;27.50;37.70;;;;;;1550694;75;1099;-66
2022/07/31 08:14:34;;;;;;;;;;;27.50;37.50;;;;;;1547369;75;713;-67
2022/07/31 08:16:36;;;;;;;;;;;27.60;37.40;;;;;;1549839;75;749;-67
2022/07/31 08:18:38;;;;;;;;;;;27.70;37.20;;;;;;1551086;75;589;-66
2022/07/31 08:20:39;;;;;;;;;;;27.60;37.10;;;;;;1550166;75;649;-67
2022/07/31 08:22:41;;;;;;;;;;;27.60;37.10;;;;;;1541181;75;1497;-68
2022/07/31 08:24:43;;;;;;;;;;;27.60;37.10;;;;;;1547498;75;1936;-68
2022/07/31 08:29:05;;;;;;;;;;;27.50;37.10;;;;;;1558094;75;1642;-67
2022/07/31 08:31:06;;;;;;;;;;;27.50;37.10;;;;;;1549122;75;1178;-66
2022/07/31 08:33:08;;;;;;;;;;;27.60;37.10;;;;;;1556283;75;603;-67
2022/07/31 08:35:10;;;;;;;;;;;27.60;37.00;;;;;;1549834;75;646;-67
2022/07/31 08:37:12;;;;;;;;;;;27.50;37.10;;;;;;1548240;75;715;-67
2022/07/31 08:39:14;;;;;;;;;;;27.60;37.00;;;;;;1554753;75;644;-65
2022/07/31 08:41:16;;;;;;;;;;;27.70;36.80;;;;;;1546736;75;1178;-66
2022/07/31 08:43:18;;;;;;;;;;;27.80;36.50;;;;;;1541487;75;710;-66
2022/07/31 08:45:20;;;;;;;;;;;27.80;36.30;;;;;;1551968;75;1950;-66
2022/07/31 08:47:22;;;;;;;;;;;27.90;36.20;;;;;;1554789;75;627;-68
2022/07/31 08:49:25;;;;;;;;;;;27.90;36.10;;;;;;1553458;75;706;-66
2022/07/31 08:51:27;;;;;;;;;;;27.80;36.10;;;;;;1553173;75;1114;-67
2022/07/31 08:53:29;;;;;;;;;;;27.80;36.10;;;;;;1548729;75;678;-65
2022/07/31 08:55:31;;;;;;;;;;;27.70;36.10;;;;;;1547914;75;687;-65
2022/07/31 08:57:33;;;;;;;;;;;27.70;36.20;;;;;;1546419;75;732;-64
2022/07/31 08:59:36;;;;;;;;;;;27.70;36.30;;;;;;1544518;75;681;-65
2022/07/31 09:01:37;;;;;;;;;;;27.70;36.30;;;;;;1551807;75;1420;-65
2022/07/31 09:03:39;;;;;;;;;;;27.60;36.40;;;;;;1545500;75;1038;-65
2022/07/31 09:05:41;;;;;;;;;;;27.60;36.50;;;;;;1534345;75;1938;-68
2022/07/31 09:07:43;;;;;;;;;;;27.70;36.40;;;;;;1555846;75;690;-66
2022/07/31 09:09:46;;;;;;;;;;;27.60;36.40;;;;;;1546850;75;731;-66
2022/07/31 09:11:48;;;;;;;;;;;27.60;36.40;;;;;;1566990;75;1149;-65
2022/07/31 09:13:58;;;;;;;;;;;27.70;36.40;;;;;;1562668;75;667;-67
2022/07/31 09:16:00;;;;;;;;;;;27.70;36.40;;;;;;1534452;75;708;-67
2022/07/31 09:18:01;;;;;;;;;;;27.70;36.30;;;;;;1545171;75;748;-67
2022/07/31 09:20:04;;;;;;;;;;;27.70;36.30;;;;;;1547446;75;1466;-66
2022/07/31 09:22:06;;;;;;;;;;;27.70;36.30;;;;;;1551142;75;1105;-67
2022/07/31 09:24:09;;;;;;;;;;;27.70;36.20;;;;;;1556215;75;1941;-66
2022/07/31 09:26:10;;;;;;;;;;;27.80;36.10;;;;;;1548340;75;724;-66
2022/07/31 09:28:12;;;;;;;;;;;27.80;36.00;;;;;;1551973;75;714;-67
2022/07/31 09:30:14;;;;;;;;;;;27.80;36.00;;;;;;1545903;75;1046;-66
2022/07/31 09:32:17;;;;;;;;;;;27.80;36.00;;;;;;1555359;75;1202;-66
2022/07/31 09:34:25;;;;;;;;;;;27.70;36.00;;;;;;1555368;75;652;-67
2022/07/31 09:36:27;;;;;;;;;;;27.70;36.10;;;;;;1544692;75;1065;-67
2022/07/31 09:38:31;;;;;;;;;;;27.80;36.00;;;;;;1547872;75;675;-68
2022/07/31 09:40:37;;;;;;;;;;;27.80;36.10;;;;;;1550873;75;1377;-66
2022/07/31 09:42:44;;;;;;;;;;;27.80;36.10;;;;;;1543315;75;1154;-66
2022/07/31 09:44:46;;;;;;;;;;;27.90;36.00;;;;;;1550452;75;1892;-66
2022/07/31 09:46:49;;;;;;;;;;;27.80;36.00;;;;;;1545209;75;697;-66
2022/07/31 09:48:51;;;;;;;;;;;27.80;36.10;;;;;;1539954;75;556;-66
2022/07/31 09:50:54;;;;;;;;;;;27.70;36.10;;;;;;1538519;75;630;-66
2022/07/31 09:52:59;;;;;;;;;;;27.80;36.10;;;;;;1550344;75;1107;-66
2022/07/31 09:55:02;;;;;;;;;;;27.70;36.20;;;;;;1548696;75;591;-67
2022/07/31 09:57:11;;;;;;;;;;;27.70;36.10;;;;;;1546237;75;720;-66
2022/07/31 09:59:13;;;;;;;;;;;27.70;36.10;;;;;;1538682;75;587;-67
2022/07/31 10:01:15;;;;;;;;;;;27.70;36.00;;;;;;1542453;75;1134;-66
2022/07/31 10:03:17;;;;;;;;;;;27.70;36.00;;;;;;1545398;75;785;-67
2022/07/31 10:05:19;;;;;;;;;;;27.70;36.00;;;;;;1544908;75;1907;-68
2022/07/31 10:07:24;;;;;;;;;;;27.70;36.00;;;;;;1558632;75;671;-68
2022/07/31 10:09:25;;;;;;;;;;;27.60;35.90;;;;;;1561415;75;1483;-66
2022/07/31 10:11:27;;;;;;;;;;;27.70;36.00;;;;;;1554246;75;1122;-66
2022/07/31 10:13:29;;;;;;;;;;;27.60;35.80;;;;;;1550305;75;657;-67
2022/07/31 10:15:31;;;;;;;;;;;27.60;35.80;;;;;;1548467;75;1463;-67
2022/07/31 10:17:34;;;;;;;;;;;27.60;35.80;;;;;;1559590;75;675;-66
2022/07/31 10:19:36;;;;;;;;;;;27.60;35.80;;;;;;1552651;75;624;-66
2022/07/31 10:21:41;;;;;;;;;;;27.60;35.80;;;;;;1552043;75;1174;-68
2022/07/31 10:23:43;;;;;;;;;;;27.50;35.80;;;;;;1546822;75;945;-66
2022/07/31 10:25:45;;;;;;;;;;;27.50;35.70;;;;;;1551382;75;1945;-67
2022/07/31 10:27:48;;;;;;;;;;;27.50;35.80;;;;;;1554266;75;695;-66
2022/07/31 10:29:50;;;;;;;;;;;27.50;35.70;;;;;;1535783;75;732;-67
2022/07/31 10:31:52;;;;;;;;;;;27.50;35.70;;;;;;1556636;75;1182;-67
2022/07/31 10:33:54;;;;;;;;;;;27.60;35.70;;;;;;1549524;75;643;-66
2022/07/31 10:36:00;;;;;;;;;;;27.50;35.70;;;;;;1544402;75;696;-67
2022/07/31 10:38:13;;;;;;;;;;;27.50;35.70;;;;;;1550825;75;1194;-67
2022/07/31 10:40:28;;;;;;;;;;;27.40;35.70;;;;;;1547719;75;730;-66
2022/07/31 10:42:38;;;;;;;;;;;27.40;35.70;;;;;;1554946;75;1103;-68
2022/07/31 10:44:40;;;;;;;;;;;27.40;35.70;;;;;;1549123;75;1915;-67
2022/07/31 10:46:42;;;;;;;;;;;27.40;35.70;;;;;;1543956;75;696;-68
2022/07/31 10:48:51;;;;;;;;;;;27.40;35.70;;;;;;1533392;75;800;-67
2022/07/31 10:51:00;;;;;;;;;;;27.40;35.70;;;;;;1551323;75;725;-67
2022/07/31 10:53:09;;;;;;;;;;;27.40;35.70;;;;;;1548520;75;1518;-66
2022/07/31 10:55:14;;;;;;;;;;;27.40;35.80;;;;;;1544706;75;679;-67
2022/07/31 10:57:26;;;;;;;;;;;27.40;35.70;;;;;;1550285;75;724;-67
2022/07/31 10:59:28;;;;;;;;;;;27.40;35.80;;;;;;1548177;75;704;-67
2022/07/31 11:01:30;;;;;;;;;;;27.40;35.70;;;;;;1551607;75;1131;-67
2022/07/31 11:03:38;;;;;;;;;;;27.40;35.80;;;;;;1555568;75;798;-67
2022/07/31 11:05:42;;;;;;;;;;;27.40;35.80;;;;;;1541146;75;1928;-67
2022/07/31 11:07:44;;;;;;;;;;;27.40;35.80;;;;;;1538850;74;1870;-66
2022/07/31 11:09:46;;;;;;;;;;;27.30;35.70;;;;;;1550187;75;686;-68
2022/07/31 11:11:48;;;;;;;;;;;27.30;35.70;;;;;;1548505;75;1583;-66
2022/07/31 11:13:50;;;;;;;;;;;27.30;35.70;;;;;;1565339;75;708;-67
2022/07/31 11:15:54;;;;;;;;;;;27.30;35.70;;;;;;1559785;75;722;-66
2022/07/31 11:17:56;;;;;;;;;;;27.30;35.70;;;;;;1554146;75;1760;-66
2022/07/31 11:19:57;;;;;;;;;;;27.30;35.80;;;;;;1549578;75;664;-67
2022/07/31 11:21:59;;;;;;;;;;;27.30;35.70;;;;;;1551986;75;1164;-69
2022/07/31 11:24:01;;;;;;;;;;;27.30;35.70;;;;;;1521429;76;1110;-68
2022/07/31 11:26:08;;;;;;;;;;;27.30;35.70;;;;;;1554040;75;1955;-66
2022/07/31 11:28:10;;;;;;;;;;;27.20;35.80;;;;;;1552001;75;993;-67
2022/07/31 11:30:12;;;;;;;;;;;27.30;35.80;;;;;;1539787;75;640;-69
2022/07/31 11:32:14;;;;;;;;;;;27.30;35.80;;;;;;1549553;75;1528;-67
2022/07/31 11:34:16;;;;;;;;;;;27.30;35.80;;;;;;1555360;75;664;-67
2022/07/31 11:36:19;;;;;;;;;;;27.30;35.70;;;;;;1545475;75;959;-68
2022/07/31 11:38:22;;;;;;;;;;;27.30;35.90;;;;;;1552143;75;809;-66
2022/07/31 11:40:24;;;;;;;;;;;27.30;35.80;;;;;;1555764;75;1404;-66
2022/07/31 11:42:29;;;;;;;;;;;27.20;35.70;;;;;;1554783;75;1186;-66
2022/07/31 11:44:31;;;;;;;;;;;27.20;35.70;;;;;;1547133;75;670;-68
2022/07/31 11:46:33;;;;;;;;;;;27.20;35.60;;;;;;1552321;75;1932;-66
2022/07/31 11:48:36;;;;;;;;;;;27.20;35.60;;;;;;1543364;75;618;-66
2022/07/31 11:50:39;;;;;;;;;;;27.20;35.70;;;;;;1546624;75;698;-67
2022/07/31 11:52:46;;;;;;;;;;;27.30;35.70;;;;;;1550044;75;1149;-67
2022/07/31 11:54:48;;;;;;;;;;;27.20;35.70;;;;;;1546635;75;594;-67
2022/07/31 11:56:51;;;;;;;;;;;27.20;35.60;;;;;;1543443;75;702;-67
2022/07/31 11:58:54;;;;;;;;;;;27.20;35.70;;;;;;1541320;75;704;-67
2022/07/31 12:00:56;;;;;;;;;;;27.20;35.70;;;;;;1538494;75;682;-69
2022/07/31 12:02:58;;;;;;;;;;;27.20;35.70;;;;;;1540821;75;1172;-67
2022/07/31 12:05:03;;;;;;;;;;;27.20;35.70;;;;;;1538794;75;1932;-67
2022/07/31 12:07:05;;;;;;;;;;;27.10;35.60;;;;;;1546777;75;667;-68
2022/07/31 12:09:07;;;;;;;;;;;27.10;35.70;;;;;;1562664;75;1575;-67
2022/07/31 12:11:09;;;;;;;;;;;27.10;35.60;;;;;;1554436;75;1167;-68
2022/07/31 12:13:12;;;;;;;;;;;27.10;35.40;;;;;;1548711;75;693;-67
2022/07/31 12:15:14;;;;;;;;;;;27.10;35.50;;;;;;1542271;75;628;-67
2022/07/31 12:17:21;;;;;;;;;;;27.10;35.50;;;;;;1544713;75;567;-67
2022/07/31 12:19:29;;;;;;;;;;;27.20;35.50;;;;;;1542969;75;829;-67